createdAt,value
2023-04-18T00:03:59.855Z,101332.00
2023-04-18T00:09:01.669Z,101328.13
2023-04-18T00:14:12.300Z,101324.00
2023-04-18T00:19:18.366Z,101317.44
2023-04-18T00:24:22.633Z,101318.88
2023-04-18T00:29:24.278Z,101319.44
2023-04-18T00:34:29.164Z,101314.81
2023-04-18T00:39:31.290Z,101313.94
2023-04-18T00:44:33.056Z,101317.44
2023-04-18T00:49:38.498Z,101318.19
2023-04-18T00:54:40.726Z,101309.31
2023-04-18T00:59:47.243Z,101308.28
2023-04-18T01:04:50.192Z,101299.81
2023-04-18T01:09:52.839Z,101297.94
2023-04-18T01:14:57.233Z,101297.00
2023-04-18T01:20:12.945Z,101291.88
2023-04-18T01:25:32.253Z,101293.09
2023-04-18T01:30:34.377Z,101292.69
2023-04-18T01:35:41.511Z,101286.75
2023-04-18T01:40:44.840Z,101286.81
2023-04-18T01:45:46.565Z,101282.81
2023-04-18T01:50:50.113Z,101283.63
2023-04-18T01:56:03.182Z,101281.16
2023-04-18T02:01:05.039Z,101284.16
2023-04-18T02:06:07.397Z,101275.16
2023-04-18T02:11:22.159Z,101284.63
2023-04-18T02:16:24.107Z,101289.19
2023-04-18T02:21:32.265Z,101287.78
2023-04-18T02:26:35.229Z,101290.84
2023-04-18T02:31:44.214Z,101287.47
2023-04-18T02:36:57.658Z,101297.97
2023-04-18T02:42:00.664Z,101283.16
2023-04-18T02:47:02.306Z,101288.44
2023-04-18T02:52:04.650Z,101295.69
2023-04-18T02:57:10.645Z,101290.19
2023-04-18T03:02:15.145Z,101290.31
2023-04-18T03:07:24.223Z,101291.50
2023-04-18T03:12:31.866Z,101293.78
2023-04-18T03:17:34.508Z,101302.06
2023-04-18T03:22:37.945Z,101306.47
2023-04-18T03:27:41.208Z,101300.69
2023-04-18T03:32:51.032Z,101310.09
2023-04-18T03:37:56.290Z,101310.22
2023-04-18T03:43:08.510Z,101303.50
2023-04-18T03:48:12.241Z,101308.47
2023-04-18T03:53:17.765Z,101302.66
2023-04-18T03:58:22.090Z,101311.56
2023-04-18T04:03:26.020Z,101307.13
2023-04-18T04:08:29.206Z,101309.56
2023-04-18T04:13:34.257Z,101308.56
2023-04-18T04:18:36.332Z,101318.06
2023-04-18T04:23:38.149Z,101314.59
2023-04-18T04:28:41.589Z,101314.44
2023-04-18T04:33:46.250Z,101321.69
2023-04-18T04:38:54.752Z,101308.28
2023-04-18T04:44:09.273Z,101308.56
2023-04-18T04:49:15.935Z,101311.22
2023-04-18T04:54:19.734Z,101319.72
2023-04-18T04:59:26.839Z,101308.78
2023-04-18T05:04:29.165Z,101306.41
2023-04-18T05:09:30.919Z,101310.41
2023-04-18T05:14:33.908Z,101308.97
2023-04-18T05:19:35.527Z,101305.16
2023-04-18T05:24:39.873Z,101313.09
2023-04-18T05:29:50.382Z,101318.16
2023-04-18T05:34:54.588Z,101319.13
2023-04-18T05:39:56.832Z,101331.38
2023-04-18T05:45:08.280Z,101311.44
2023-04-18T05:50:13.055Z,101329.31
2023-04-18T05:55:14.647Z,101335.22
2023-04-18T06:00:20.557Z,101335.44
2023-04-18T06:05:24.606Z,101331.69
2023-04-18T06:10:26.468Z,101346.72
2023-04-18T06:15:32.352Z,101356.28
2023-04-18T06:20:37.665Z,101347.38
2023-04-18T06:25:42.457Z,101355.38
2023-04-18T06:30:49.862Z,101364.47
2023-04-18T06:35:51.501Z,101380.19
2023-04-18T06:40:53.422Z,101370.81
2023-04-18T06:45:56.568Z,101370.06
2023-04-18T06:50:58.338Z,101382.16
2023-04-18T06:56:02.204Z,101383.38
2023-04-18T07:01:07.624Z,101396.22
2023-04-18T07:06:11.552Z,101396.53
2023-04-18T07:11:13.291Z,101401.69
2023-04-18T07:16:21.630Z,101402.28
2023-04-18T07:21:23.126Z,101402.59
2023-04-18T07:26:29.855Z,101403.50
2023-04-18T07:31:33.006Z,101409.28
2023-04-18T07:36:34.763Z,101403.66
2023-04-18T07:41:39.023Z,101408.94
2023-04-18T07:46:42.179Z,101396.66
2023-04-18T07:51:43.794Z,101400.44
2023-04-18T07:56:45.442Z,101397.41
2023-04-18T08:01:51.646Z,101403.09
2023-04-18T08:07:02.123Z,101412.47
2023-04-18T08:12:04.183Z,101408.66
2023-04-18T08:17:12.544Z,101419.03
2023-04-18T08:22:14.261Z,101426.66
2023-04-18T08:27:15.922Z,101416.91
2023-04-18T08:32:19.151Z,101428.09
2023-04-18T08:37:20.885Z,101422.50
2023-04-18T08:42:23.497Z,101429.59
2023-04-18T08:47:28.803Z,101423.97
2023-04-18T08:52:32.348Z,101428.34
2023-04-18T08:57:36.980Z,101433.50
2023-04-18T09:02:41.346Z,101435.25
2023-04-18T09:07:43.185Z,101438.84
2023-04-18T09:12:50.247Z,101426.94
2023-04-18T09:17:54.937Z,101421.66
2023-04-18T09:22:58.932Z,101425.00
2023-04-18T09:28:03.561Z,101410.19
2023-04-18T09:33:08.471Z,101404.50
2023-04-18T09:38:10.554Z,101392.03
2023-04-18T09:43:21.498Z,101398.13
2023-04-18T09:48:27.941Z,101390.66
2023-04-18T09:53:32.164Z,101385.38
2023-04-18T09:58:41.220Z,101380.94
2023-04-18T10:03:47.859Z,101377.59
2023-04-18T10:08:51.879Z,101381.22
2023-04-18T10:13:55.988Z,101381.78
2023-04-18T10:19:24.870Z,101382.91
2023-04-18T10:24:48.724Z,101376.34
2023-04-18T10:29:51.890Z,101353.44
2023-04-18T10:34:58.413Z,101371.72
2023-04-18T10:40:01.029Z,101360.19
2023-04-18T10:45:18.758Z,101368.44
2023-04-18T10:50:22.040Z,101369.44
2023-04-18T10:55:29.637Z,101360.09
2023-04-18T11:00:33.297Z,101339.78
2023-04-18T11:05:39.206Z,101331.84
2023-04-18T11:10:41.456Z,101333.44
2023-04-18T11:15:43.102Z,101319.22
2023-04-18T11:20:50.820Z,101310.66
2023-04-18T11:25:54.705Z,101300.91
2023-04-18T11:31:00.671Z,101303.28
2023-04-18T11:36:12.325Z,101297.72
2023-04-18T11:41:15.601Z,101288.19
2023-04-18T11:46:22.007Z,101298.97
2023-04-18T11:51:36.123Z,101285.63
2023-04-18T11:56:48.181Z,101297.84
2023-04-18T12:02:15.573Z,101283.84
2023-04-18T12:07:43.320Z,101290.94
2023-04-18T12:12:50.999Z,101288.97
2023-04-18T12:17:56.681Z,101297.50
2023-04-18T12:23:03.849Z,101284.34
2023-04-18T12:28:19.050Z,101278.72
2023-04-18T12:33:23.866Z,101273.88
2023-04-18T12:38:37.466Z,101281.75
2023-04-18T12:43:39.393Z,101287.44
2023-04-18T12:48:46.778Z,101282.94
2023-04-18T12:53:52.712Z,101286.22
2023-04-18T12:58:57.171Z,101286.78
2023-04-18T13:04:10.633Z,101288.50
2023-04-18T13:09:15.264Z,101295.25
2023-04-18T13:14:19.933Z,101294.47
2023-04-18T13:19:21.663Z,101302.91
2023-04-18T13:24:27.035Z,101290.09
2023-04-18T13:29:28.778Z,101290.56
2023-04-18T13:34:34.181Z,101295.69
2023-04-18T13:39:37.257Z,101285.84
2023-04-18T13:44:43.905Z,101285.97
2023-04-18T13:49:48.131Z,101269.53
2023-04-18T13:54:56.584Z,101287.44
2023-04-18T14:00:00.760Z,101298.72
2023-04-18T14:05:02.762Z,101284.25
2023-04-18T14:10:07.929Z,101278.63
2023-04-18T14:15:10.537Z,101288.09
2023-04-18T14:20:16.844Z,101285.69
2023-04-18T14:25:20.218Z,101273.97
2023-04-18T14:30:23.551Z,101269.34
2023-04-18T14:35:27.957Z,101272.63
2023-04-18T14:40:33.634Z,101274.41
2023-04-18T14:45:39.939Z,101264.44
2023-04-18T14:50:46.306Z,101266.91
2023-04-18T14:55:56.804Z,101262.00
2023-04-18T15:00:58.514Z,101271.63
2023-04-18T15:06:08.109Z,101278.31
2023-04-18T15:11:13.368Z,101276.59
2023-04-18T15:16:22.326Z,101272.19
2023-04-18T15:21:27.515Z,101284.53
2023-04-18T15:26:32.934Z,101275.34
2023-04-18T15:31:35.839Z,101271.50
2023-04-18T15:36:39.994Z,101270.31
2023-04-18T15:41:45.974Z,101275.44
2023-04-18T15:46:57.212Z,101270.22
2023-04-18T15:51:58.912Z,101270.56
2023-04-18T15:57:03.791Z,101262.97
2023-04-18T16:02:06.757Z,101264.09
2023-04-18T16:07:10.610Z,101267.84
2023-04-18T16:12:13.592Z,101273.44
2023-04-18T16:17:20.423Z,101281.50
2023-04-18T16:22:22.137Z,101282.50
2023-04-18T16:27:28.322Z,101286.44
2023-04-18T16:32:34.713Z,101291.41
2023-04-18T16:37:43.334Z,101296.00
2023-04-18T16:42:48.569Z,101293.59
2023-04-18T16:47:53.354Z,101299.81
2023-04-18T16:52:55.090Z,101296.50
2023-04-18T16:57:58.111Z,101305.16
2023-04-18T17:03:05.296Z,101319.28
2023-04-18T17:08:12.275Z,101323.06
2023-04-18T17:13:18.255Z,101322.47
2023-04-18T17:18:19.931Z,101331.22
2023-04-18T17:23:21.772Z,101339.25
2023-04-18T17:28:29.782Z,101336.19
2023-04-18T17:33:34.542Z,101338.78
2023-04-18T17:38:36.232Z,101339.97
2023-04-18T17:43:39.540Z,101338.84
2023-04-18T17:48:41.264Z,101344.03
2023-04-18T17:53:48.271Z,101357.28
2023-04-18T17:58:56.466Z,101356.53
2023-04-18T18:03:58.845Z,101371.31
2023-04-18T18:09:03.641Z,101374.53
2023-04-18T18:14:14.357Z,101380.91
2023-04-18T18:19:17.950Z,101387.09
2023-04-18T18:24:19.681Z,101383.63
2023-04-18T18:29:30.713Z,101390.47
2023-04-18T18:34:32.371Z,101393.06
2023-04-18T18:39:34.159Z,101406.28
2023-04-18T18:44:48.280Z,101413.00
2023-04-18T18:49:49.936Z,101419.44
2023-04-18T18:54:52.809Z,101426.03
2023-04-18T18:59:58.805Z,101429.00
2023-04-18T19:05:00.734Z,101440.28
2023-04-18T19:10:05.603Z,101440.91
2023-04-18T19:15:10.066Z,101435.22
2023-04-18T19:20:11.813Z,101453.69
2023-04-18T19:25:15.952Z,101444.66
2023-04-18T19:30:19.374Z,101449.94
2023-04-18T19:35:31.125Z,101454.56
2023-04-18T19:40:33.370Z,101458.69
2023-04-18T19:45:45.040Z,101457.69
2023-04-18T19:50:50.568Z,101461.41
2023-04-18T19:55:56.569Z,101456.25
2023-04-18T20:01:03.166Z,101457.63
2023-04-18T20:06:06.091Z,101459.47
2023-04-18T20:11:12.053Z,101460.56
2023-04-18T20:16:21.305Z,101463.84
2023-04-18T20:21:25.717Z,101461.50
2023-04-18T20:26:30.000Z,101467.16
2023-04-18T20:31:36.018Z,101450.41
2023-04-18T20:36:37.824Z,101463.56
2023-04-18T20:41:42.805Z,101454.75
2023-04-18T20:46:45.884Z,101467.13
2023-04-18T20:51:49.681Z,101468.63
2023-04-18T20:56:58.425Z,101464.03
2023-04-18T21:02:01.662Z,101463.03
2023-04-18T21:07:04.169Z,101473.06
2023-04-18T21:12:08.725Z,101472.78
2023-04-18T21:17:11.816Z,101480.06
2023-04-18T21:22:18.663Z,101476.75
2023-04-18T21:27:20.319Z,101479.84
2023-04-18T21:32:26.166Z,101480.47
2023-04-18T21:37:28.172Z,101477.31
2023-04-18T21:42:29.946Z,101474.81
2023-04-18T21:47:33.267Z,101477.78
2023-04-18T21:52:37.627Z,101476.84
2023-04-18T21:57:39.232Z,101476.31
2023-04-18T22:02:42.445Z,101481.69
2023-04-18T22:07:58.244Z,101470.94
2023-04-18T22:13:00.499Z,101481.47
2023-04-18T22:18:08.089Z,101476.75
2023-04-18T22:23:10.031Z,101467.31
2023-04-18T22:28:11.714Z,101477.78
2023-04-18T22:33:17.194Z,101463.97
2023-04-18T22:38:30.766Z,101469.13
2023-04-18T22:43:50.595Z,101473.66
2023-04-18T22:48:53.581Z,101481.06
2023-04-18T22:53:58.164Z,101479.72
2023-04-18T22:59:02.474Z,101485.69
2023-04-18T23:04:05.949Z,101489.28
2023-04-18T23:09:07.784Z,101490.69
2023-04-18T23:14:12.100Z,101482.31
2023-04-18T23:19:20.936Z,101486.84
2023-04-18T23:24:22.583Z,101481.13
2023-04-18T23:29:36.590Z,101477.22
2023-04-18T23:34:39.858Z,101476.53
2023-04-18T23:39:41.497Z,101470.72
2023-04-18T23:44:58.789Z,101479.41
2023-04-18T23:50:04.323Z,101480.28
2023-04-18T23:55:06.729Z,101474.34
